Time,TemperatureF,DewpointF,PressureIn,WindDirection,WindDirectionDegrees,WindSpeedMPH,WindSpeedGustMPH,Humidity,HourlyPrecipIn,Conditions,Clouds,dailyrainin,SoftwareType,DateUTC
2013-11-24 00:14:00,35.7,15.0,30.23,SE,142,12.0,30.0,43,0.00,,,0.00,weatherlink.com 1.10,2013-11-24 07:14:00,
2013-11-24 00:29:00,35.2,15.0,30.23,SSE,152,16.0,27.0,44,0.00,,,0.00,weatherlink.com 1.10,2013-11-24 07:29:00,
2013-11-24 00:44:00,35.6,16.0,30.23,SE,141,14.0,28.0,44,0.00,,,0.00,weatherlink.com 1.10,2013-11-24 07:44:00,
2013-11-24 00:59:00,35.7,15.0,30.22,SSE,151,27.0,27.0,43,0.00,,,0.00,weatherlink.com 1.10,2013-11-24 07:59:00,
2013-11-24 01:14:00,35.8,15.0,30.21,SE,139,12.0,29.0,43,0.00,,,0.00,weatherlink.com 1.10,2013-11-24 08:14:00,
2013-11-24 01:29:00,35.7,15.0,30.22,SSE,155,14.0,28.0,43,0.00,,,0.00,weatherlink.com 1.10,2013-11-24 08:29:00,
2013-11-24 01:44:00,35.8,15.0,30.22,ESE,113,13.0,30.0,43,0.00,,,0.00,weatherlink.com 1.10,2013-11-24 08:44:00,
2013-11-24 01:59:00,35.8,15.0,30.22,SE,146,19.0,28.0,43,0.00,,,0.00,weatherlink.com 1.10,2013-11-24 08:59:00,
2013-11-24 02:14:00,35.7,15.0,30.22,SSE,155,19.0,29.0,43,0.00,,,0.00,weatherlink.com 1.10,2013-11-24 09:14:00,
2013-11-24 02:29:00,35.4,15.0,30.21,SE,146,15.0,30.0,44,0.00,,,0.00,weatherlink.com 1.10,2013-11-24 09:29:00,
2013-11-24 02:44:00,35.0,15.0,30.21,SSE,151,13.0,32.0,45,0.00,,,0.00,weatherlink.com 1.10,2013-11-24 09:44:00,
2013-11-24 02:59:00,35.1,16.0,30.21,SSE,150,15.0,31.0,45,0.00,,,0.00,weatherlink.com 1.10,2013-11-24 09:59:00,
2013-11-24 03:14:00,35.2,16.0,30.21,SSE,164,23.0,28.0,45,0.00,,,0.00,weatherlink.com 1.10,2013-11-24 10:14:00,
2013-11-24 03:29:00,35.7,16.0,30.20,SSE,159,20.0,27.0,44,0.00,,,0.00,weatherlink.com 1.10,2013-11-24 10:29:00,
2013-11-24 03:44:00,35.6,16.0,30.20,SE,144,19.0,28.0,44,0.00,,,0.00,weatherlink.com 1.10,2013-11-24 10:44:00,
2013-11-24 03:59:00,35.8,16.0,30.19,SSE,157,16.0,25.0,44,0.00,,,0.00,weatherlink.com 1.10,2013-11-24 10:59:00,
2013-11-24 04:14:00,35.3,15.0,30.19,SE,144,21.0,29.0,44,0.00,,,0.00,weatherlink.com 1.10,2013-11-24 11:14:00,
2013-11-24 04:29:00,35.5,15.0,30.19,SSE,148,20.0,27.0,44,0.00,,,0.00,weatherlink.com 1.10,2013-11-24 11:29:00,
2013-11-24 04:44:00,35.0,15.0,30.18,SE,142,20.0,23.0,45,0.00,,,0.00,weatherlink.com 1.10,2013-11-24 11:44:00,
2013-11-24 04:59:00,35.0,15.0,30.17,SE,137,18.0,27.0,45,0.00,,,0.00,weatherlink.com 1.10,2013-11-24 11:59:00,
2013-11-24 05:14:00,35.3,15.0,30.18,SSE,156,21.0,26.0,44,0.00,,,0.00,weatherlink.com 1.10,2013-11-24 12:14:00,
2013-11-24 05:29:00,35.2,15.0,30.17,SE,131,13.0,27.0,44,0.00,,,0.00,weatherlink.com 1.10,2013-11-24 12:29:00,
2013-11-24 05:44:00,35.0,15.0,30.18,SE,144,18.0,24.0,45,0.00,,,0.00,weatherlink.com 1.10,2013-11-24 12:44:00,
2013-11-24 05:59:00,35.1,16.0,30.18,SSE,153,20.0,22.0,45,0.00,,,0.00,weatherlink.com 1.10,2013-11-24 12:59:00,
2013-11-24 06:14:00,35.2,15.0,30.18,SSE,155,21.0,27.0,44,0.00,,,0.00,weatherlink.com 1.10,2013-11-24 13:14:00,
2013-11-24 06:29:00,34.7,15.0,30.19,ESE,115,21.0,23.0,45,0.00,,,0.00,weatherlink.com 1.10,2013-11-24 13:29:00,
2013-11-24 06:45:00,34.2,15.0,30.19,SE,138,14.0,22.0,46,0.00,,,0.00,weatherlink.com 1.10,2013-11-24 13:45:00,
2013-11-24 07:00:00,34.3,15.0,30.20,SSE,163,12.0,20.0,46,0.00,,,0.00,weatherlink.com 1.10,2013-11-24 14:00:00,
2013-11-24 07:15:00,34.3,15.0,30.18,SE,125,14.0,26.0,46,0.00,,,0.00,weatherlink.com 1.10,2013-11-24 14:15:00,
2013-11-24 07:30:00,34.1,15.0,30.18,SSE,161,16.0,26.0,46,0.00,,,0.00,weatherlink.com 1.10,2013-11-24 14:30:00,
2013-11-24 07:45:00,34.6,16.0,30.19,SSE,160,14.0,25.0,46,0.00,,,0.00,weatherlink.com 1.10,2013-11-24 14:45:00,
2013-11-24 08:00:00,35.3,15.0,30.19,SE,142,21.0,28.0,44,0.00,,,0.00,weatherlink.com 1.10,2013-11-24 15:00:00,
2013-11-24 08:15:00,35.3,16.0,30.19,SE,138,12.0,27.0,45,0.00,,,0.00,weatherlink.com 1.10,2013-11-24 15:15:00,
2013-11-24 08:30:00,35.6,16.0,30.19,SSE,159,17.0,24.0,44,0.00,,,0.00,weatherlink.com 1.10,2013-11-24 15:30:00,
2013-11-24 08:45:00,35.5,15.0,30.19,SSE,149,13.0,23.0,44,0.00,,,0.00,weatherlink.com 1.10,2013-11-24 15:45:00,
2013-11-24 09:00:00,35.1,16.0,30.20,SSE,147,14.0,21.0,46,0.00,,,0.00,weatherlink.com 1.10,2013-11-24 16:00:00,
2013-11-24 09:15:00,36.0,16.0,30.19,South,172,12.0,23.0,44,0.00,,,0.00,weatherlink.com 1.10,2013-11-24 16:15:00,
2013-11-24 09:30:00,36.4,16.0,30.19,SSE,163,15.0,22.0,43,0.00,,,0.00,weatherlink.com 1.10,2013-11-24 16:30:00,
2013-11-24 09:45:00,36.5,16.0,30.18,SSE,155,11.0,26.0,43,0.00,,,0.00,weatherlink.com 1.10,2013-11-24 16:45:00,
2013-11-24 10:00:00,36.5,15.0,30.18,SSE,161,18.0,25.0,42,0.00,,,0.00,weatherlink.com 1.10,2013-11-24 17:00:00,
2013-11-24 10:15:00,36.7,16.0,30.18,SSE,149,15.0,21.0,43,0.00,,,0.00,weatherlink.com 1.10,2013-11-24 17:15:00,
2013-11-24 10:30:00,38.1,16.0,30.18,SSE,151,16.0,25.0,41,0.00,,,0.00,weatherlink.com 1.10,2013-11-24 17:30:00,
2013-11-24 10:45:00,38.0,16.0,30.18,SSE,163,18.0,26.0,41,0.00,,,0.00,weatherlink.com 1.10,2013-11-24 17:45:00,
2013-11-24 11:00:00,38.8,16.0,30.18,SSE,147,14.0,22.0,40,0.00,,,0.00,weatherlink.com 1.10,2013-11-24 18:00:00,
2013-11-24 11:15:00,38.6,16.0,30.17,SSE,156,18.0,26.0,40,0.00,,,0.00,weatherlink.com 1.10,2013-11-24 18:15:00,
2013-11-24 11:30:00,39.5,16.0,30.16,SE,130,23.0,28.0,39,0.00,,,0.00,weatherlink.com 1.10,2013-11-24 18:30:00,
2013-11-24 11:45:00,40.9,16.0,30.14,SE,142,15.0,24.0,37,0.00,,,0.00,weatherlink.com 1.10,2013-11-24 18:45:00,
2013-11-24 12:00:00,42.9,16.0,30.14,SSE,153,22.0,27.0,34,0.00,,,0.00,weatherlink.com 1.10,2013-11-24 19:00:00,
2013-11-24 12:15:00,42.8,17.0,30.13,SSE,153,20.0,27.0,35,0.00,,,0.00,weatherlink.com 1.10,2013-11-24 19:15:00,
2013-11-24 12:30:00,42.2,16.0,30.13,South,182,13.0,26.0,35,0.00,,,0.00,weatherlink.com 1.10,2013-11-24 19:30:00,
2013-11-24 12:45:00,42.9,17.0,30.14,SSW,193,7.0,28.0,35,0.00,,,0.00,weatherlink.com 1.10,2013-11-24 19:45:00,
2013-11-24 13:00:00,42.8,17.0,30.13,SE,138,16.0,28.0,35,0.00,,,0.00,weatherlink.com 1.10,2013-11-24 20:00:00,
2013-11-24 13:15:00,43.3,17.0,30.12,SSE,166,8.0,26.0,34,0.00,,,0.00,weatherlink.com 1.10,2013-11-24 20:15:00,
2013-11-24 13:30:00,43.3,17.0,30.12,SSE,167,14.0,26.0,34,0.00,,,0.00,weatherlink.com 1.10,2013-11-24 20:30:00,
2013-11-24 13:45:00,42.2,16.0,30.11,South,179,15.0,28.0,35,0.00,,,0.00,weatherlink.com 1.10,2013-11-24 20:45:00,
2013-11-24 14:00:00,43.1,17.0,30.12,SSE,148,20.0,26.0,35,0.00,,,0.00,weatherlink.com 1.10,2013-11-24 21:00:00,
2013-11-24 14:15:00,44.4,17.0,30.10,SE,136,18.0,25.0,33,0.00,,,0.00,weatherlink.com 1.10,2013-11-24 21:15:00,
2013-11-24 14:30:00,44.2,17.0,30.11,ESE,120,11.0,24.0,33,0.00,,,0.00,weatherlink.com 1.10,2013-11-24 21:30:00,
2013-11-24 14:45:00,45.5,17.0,30.12,SSE,159,5.0,21.0,32,0.00,,,0.00,weatherlink.com 1.10,2013-11-24 21:45:00,
2013-11-24 15:00:00,44.7,19.0,30.12,South,187,0.0,13.0,36,0.00,,,0.00,weatherlink.com 1.10,2013-11-24 22:00:00,
2013-11-24 15:15:00,44.0,16.0,30.12,SSE,156,12.0,19.0,33,0.00,,,0.00,weatherlink.com 1.10,2013-11-24 22:15:00,
2013-11-24 15:30:00,44.0,17.0,30.12,SSE,168,19.0,23.0,34,0.00,,,0.00,weatherlink.com 1.10,2013-11-24 22:30:00,
2013-11-24 15:45:00,42.6,17.0,30.12,SE,142,8.0,23.0,36,0.00,,,0.00,weatherlink.com 1.10,2013-11-24 22:45:00,
2013-11-24 16:00:00,41.9,17.0,30.12,SSE,148,13.0,23.0,37,0.00,,,0.00,weatherlink.com 1.10,2013-11-24 23:00:00,
2013-11-24 16:15:00,41.5,18.0,30.13,SE,140,6.0,20.0,39,0.00,,,0.00,weatherlink.com 1.10,2013-11-24 23:15:00,
2013-11-24 16:30:00,42.0,18.0,30.13,SSE,153,18.0,20.0,38,0.00,,,0.00,weatherlink.com 1.10,2013-11-24 23:30:00,
2013-11-24 16:45:00,42.4,17.0,30.14,SSE,150,14.0,18.0,36,0.00,,,0.00,weatherlink.com 1.10,2013-11-24 23:45:00,
2013-11-24 17:00:00,41.5,18.0,30.14,SSE,147,13.0,20.0,39,0.00,,,0.00,weatherlink.com 1.10,2013-11-25 00:00:00,
2013-11-24 17:15:00,40.3,19.0,30.15,SSE,167,8.0,20.0,43,0.00,,,0.00,weatherlink.com 1.10,2013-11-25 00:15:00,
2013-11-24 17:30:00,40.0,20.0,30.15,SE,143,18.0,22.0,44,0.00,,,0.00,weatherlink.com 1.10,2013-11-25 00:30:00,
2013-11-24 17:45:00,39.7,20.0,30.16,South,184,15.0,17.0,45,0.00,,,0.00,weatherlink.com 1.10,2013-11-25 00:45:00,
2013-11-24 18:00:00,39.5,19.0,30.16,SSE,153,10.0,18.0,44,0.00,,,0.00,weatherlink.com 1.10,2013-11-25 01:00:00,
2013-11-24 18:15:00,40.0,19.0,30.16,SSE,157,7.0,16.0,43,0.00,,,0.00,weatherlink.com 1.10,2013-11-25 01:15:00,
2013-11-24 18:30:00,39.9,19.0,30.17,SSE,158,12.0,14.0,44,0.00,,,0.00,weatherlink.com 1.10,2013-11-25 01:30:00,
2013-11-24 18:45:00,39.7,20.0,30.17,SSE,147,9.0,18.0,46,0.00,,,0.00,weatherlink.com 1.10,2013-11-25 01:45:00,
2013-11-24 19:00:00,39.5,20.0,30.18,SSE,161,5.0,15.0,46,0.00,,,0.00,weatherlink.com 1.10,2013-11-25 02:00:00,
2013-11-24 19:15:00,39.0,19.0,30.18,SSE,165,11.0,15.0,44,0.00,,,0.00,weatherlink.com 1.10,2013-11-25 02:15:00,
2013-11-24 19:30:00,38.7,19.0,30.19,SSE,165,8.0,13.0,46,0.00,,,0.00,weatherlink.com 1.10,2013-11-25 02:30:00,
2013-11-24 19:45:00,38.7,19.0,30.20,SSE,157,11.0,15.0,46,0.00,,,0.00,weatherlink.com 1.10,2013-11-25 02:45:00,
2013-11-24 20:00:00,38.7,18.0,30.20,South,173,14.0,16.0,44,0.00,,,0.00,weatherlink.com 1.10,2013-11-25 03:00:00,
2013-11-24 20:15:00,38.3,20.0,30.22,NE,51,6.0,6.0,47,0.00,,,0.00,weatherlink.com 1.10,2013-11-25 03:15:00,
2013-11-24 20:30:00,37.9,20.0,30.24,NW,317,5.0,6.0,48,0.00,,,0.00,weatherlink.com 1.10,2013-11-25 03:30:00,
2013-11-24 20:45:00,37.5,19.0,30.24,NW,306,0.0,1.0,47,0.00,,,0.00,weatherlink.com 1.10,2013-11-25 03:45:00,
2013-11-24 21:01:00,36.9,19.0,30.25,NNE,19,1.0,3.0,48,0.00,,,0.00,weatherlink.com 1.10,2013-11-25 04:01:00,
2013-11-24 21:16:00,36.5,19.0,30.26,NNE,29,1.0,1.0,49,0.00,,,0.00,weatherlink.com 1.10,2013-11-25 04:16:00,
2013-11-24 21:31:00,37.8,24.0,30.27,NW,308,3.0,9.0,57,0.00,,,0.00,weatherlink.com 1.10,2013-11-25 04:31:00,
2013-11-24 21:46:00,37.7,24.0,30.27,NW,311,1.0,7.0,57,0.00,,,0.00,weatherlink.com 1.10,2013-11-25 04:46:00,
2013-11-24 22:01:00,37.1,23.0,30.28,NW,319,0.0,6.0,58,0.00,,,0.00,weatherlink.com 1.10,2013-11-25 05:01:00,
2013-11-24 22:16:00,36.9,24.0,30.28,North,5,0.0,5.0,59,0.00,,,0.00,weatherlink.com 1.10,2013-11-25 05:16:00,
2013-11-24 22:31:00,36.4,24.0,30.29,NW,311,4.0,6.0,60,0.00,,,0.00,weatherlink.com 1.10,2013-11-25 05:31:00,
2013-11-24 22:46:00,35.3,23.0,30.29,NNW,331,4.0,5.0,62,0.00,,,0.00,weatherlink.com 1.10,2013-11-25 05:46:00,
2013-11-24 23:01:00,35.0,23.0,30.30,ENE,74,0.0,4.0,62,0.00,,,0.00,weatherlink.com 1.10,2013-11-25 06:01:00,
2013-11-24 23:16:00,34.6,23.0,30.30,NNW,348,0.0,4.0,63,0.00,,,0.00,weatherlink.com 1.10,2013-11-25 06:16:00,
2013-11-24 23:31:00,33.3,23.0,30.30,NW,312,2.0,3.0,65,0.00,,,0.00,weatherlink.com 1.10,2013-11-25 06:31:00,
2013-11-24 23:46:00,31.4,22.0,30.30,WNW,297,2.0,3.0,68,0.00,,,0.00,weatherlink.com 1.10,2013-11-25 06:46:00,